Time;durP1;ratioP1;P1;durP2;ratioP2;P2;SDS_P1;SDS_P2;PMS_P1;PMS_P2;Temp;Humidity;BMP_temperature;BMP_pressure;BME280_temperature;BME280_humidity;BME280_pressure;Samples;Min_cycle;Max_cycle;Signal;HPM_P1;HPM_P2
2024/03/25 00:03:17;;;;;;;12.93;6.80;;;;;3.00;100378.00;;;;10428748;28;20289;-79
2024/03/25 00:08:18;;;;;;;10.73;7.10;;;;;3.00;100365.00;;;;10406967;28;20704;-79
2024/03/25 00:13:20;;;;;;;9.37;6.63;;;;;2.90;100371.00;;;;10413923;28;20308;-79
2024/03/25 00:18:21;;;;;;;8.47;6.43;;;;;2.80;100378.00;;;;10419691;28;20321;-80
2024/03/25 00:23:22;;;;;;;10.80;6.87;;;;;2.70;100369.00;;;;10415811;28;20312;-79
2024/03/25 00:28:23;;;;;;;10.47;6.10;;;;;2.70;100367.00;;;;10404100;28;20218;-80
2024/03/25 00:33:24;;;;;;;11.07;5.77;;;;;2.60;100366.00;;;;10411453;28;20222;-79
2024/03/25 00:38:26;;;;;;;9.17;5.83;;;;;2.60;100359.00;;;;10398560;28;20303;-80
2024/03/25 00:43:27;;;;;;;11.53;6.60;;;;;2.60;100350.00;;;;10425834;28;20214;-77
2024/03/25 00:48:28;;;;;;;10.67;6.10;;;;;2.60;100346.00;;;;10424241;28;20674;-76
2024/03/25 00:53:29;;;;;;;12.00;6.07;;;;;2.70;100348.00;;;;10400773;28;20312;-76
2024/03/25 00:58:30;;;;;;;10.57;6.87;;;;;2.80;100350.00;;;;10399959;28;20296;-77
2024/03/25 01:03:31;;;;;;;11.17;6.07;;;;;2.80;100344.00;;;;10406847;28;20237;-77
2024/03/25 01:08:32;;;;;;;10.77;6.03;;;;;2.80;100333.00;;;;10401745;28;20954;-79
2024/03/25 01:13:34;;;;;;;14.83;5.90;;;;;2.80;100332.00;;;;10414433;28;20222;-76
2024/03/25 01:18:35;;;;;;;10.20;5.53;;;;;2.70;100322.00;;;;10405164;28;20594;-78
2024/03/25 01:23:36;;;;;;;11.93;5.47;;;;;2.70;100321.00;;;;10428674;28;20897;-77
2024/03/25 01:28:37;;;;;;;10.70;4.90;;;;;2.60;100322.00;;;;10419364;28;20222;-79
2024/03/25 01:33:38;;;;;;;9.47;5.07;;;;;2.50;100310.00;;;;10404981;28;20305;-76
2024/03/25 01:38:39;;;;;;;10.13;5.33;;;;;2.40;100313.00;;;;10411020;28;20258;-76
2024/03/25 01:43:41;;;;;;;7.80;4.60;;;;;2.40;100304.00;;;;10418686;28;20218;-77
2024/03/25 01:48:43;;;;;;;6.37;4.43;;;;;2.40;100304.00;;;;10415443;28;20218;-77
2024/03/25 01:53:46;;;;;;;7.20;4.57;;;;;2.30;100304.00;;;;10421919;28;20596;-79
2024/03/25 01:58:47;;;;;;;7.43;4.00;;;;;2.30;100296.00;;;;10395956;28;20246;-80
2024/03/25 02:03:49;;;;;;;11.07;3.87;;;;;2.20;100306.00;;;;10425965;28;20697;-80
2024/03/25 02:08:52;;;;;;;4.93;4.20;;;;;2.10;100292.00;;;;10418820;28;20352;-79
2024/03/25 02:13:54;;;;;;;6.77;4.20;;;;;2.10;100287.00;;;;10411316;28;20222;-79
2024/03/25 02:18:55;;;;;;;10.57;4.47;;;;;2.10;100277.00;;;;10426827;28;20226;-79
2024/03/25 02:24:00;;;;;;;8.50;4.90;;;;;2.20;100277.00;;;;10417994;28;20225;-79
2024/03/25 02:29:02;;;;;;;7.67;4.53;;;;;2.20;100273.00;;;;10422294;28;20752;-80
2024/03/25 02:34:03;;;;;;;9.87;4.07;;;;;2.20;100263.00;;;;10418908;28;20241;-80
2024/03/25 02:39:04;;;;;;;11.13;4.70;;;;;2.30;100258.00;;;;10412692;28;20907;-79
2024/03/25 02:44:06;;;;;;;11.07;4.90;;;;;2.30;100254.00;;;;10401226;28;20258;-80
2024/03/25 02:49:07;;;;;;;12.70;5.80;;;;;2.40;100248.00;;;;10415743;28;20747;-80
2024/03/25 02:54:08;;;;;;;14.50;6.40;;;;;2.50;100232.00;;;;10408222;28;20324;-80
2024/03/25 02:59:09;;;;;;;15.53;6.23;;;;;2.60;100234.00;;;;10437410;28;20251;-77
2024/03/25 03:04:11;;;;;;;19.53;7.20;;;;;2.50;100252.00;;;;10402831;28;20214;-83
2024/03/25 03:09:12;;;;;;;13.50;6.53;;;;;2.50;100248.00;;;;10399968;28;20680;-83
2024/03/25 03:14:13;;;;;;;13.70;6.27;;;;;2.50;100237.00;;;;10410976;28;21130;-84
2024/03/25 03:19:14;;;;;;;14.40;6.43;;;;;2.50;100230.00;;;;10416017;28;20668;-83
2024/03/25 03:24:15;;;;;;;15.50;6.80;;;;;2.40;100239.00;;;;10405770;28;20241;-83
2024/03/25 03:29:18;;;;;;;12.00;7.10;;;;;2.50;100233.00;;;;10416854;28;20241;-83
2024/03/25 03:34:19;;;;;;;14.73;6.93;;;;;2.50;100232.00;;;;10404837;28;20221;-83
2024/03/25 03:39:20;;;;;;;17.17;6.73;;;;;2.50;100226.00;;;;10413759;28;20245;-82
2024/03/25 03:44:21;;;;;;;17.63;7.57;;;;;2.50;100214.00;;;;10404259;28;20245;-83
2024/03/25 03:49:22;;;;;;;19.77;8.13;;;;;2.50;100218.00;;;;10399369;28;20249;-82
2024/03/25 03:54:24;;;;;;;17.60;8.43;;;;;2.60;100216.00;;;;10411837;28;20802;-84
2024/03/25 03:59:26;;;;;;;20.90;8.57;;;;;2.70;100208.00;;;;10409058;28;20246;-83
2024/03/25 04:04:27;;;;;;;23.73;8.83;;;;;2.70;100204.00;;;;10399628;28;20819;-82
2024/03/25 04:09:31;;;;;;;20.93;8.47;;;;;2.80;100213.00;;;;10394849;28;20305;-82
2024/03/25 04:14:32;;;;;;;22.33;9.03;;;;;2.70;100212.00;;;;10377567;28;20304;-82
2024/03/25 04:19:34;;;;;;;25.60;9.67;;;;;2.60;100220.00;;;;10419740;28;20442;-82
2024/03/25 04:24:35;;;;;;;19.43;9.43;;;;;2.50;100225.00;;;;10395599;28;20360;-81
2024/03/25 04:29:36;;;;;;;25.90;9.27;;;;;2.50;100212.00;;;;10405489;28;20673;-81
2024/03/25 04:34:38;;;;;;;23.20;9.77;;;;;2.40;100214.00;;;;10410710;28;20305;-81
2024/03/25 04:39:39;;;;;;;26.67;11.00;;;;;2.40;100209.00;;;;10388656;28;20257;-80
2024/03/25 04:44:40;;;;;;;22.23;10.77;;;;;2.40;100210.00;;;;10412442;28;20257;-80
2024/03/25 04:49:42;;;;;;;28.33;11.13;;;;;2.20;100198.00;;;;10428013;28;20280;-81
2024/03/25 04:54:43;;;;;;;31.33;13.70;;;;;2.20;100202.00;;;;10407622;28;20357;-83
2024/03/25 04:59:44;;;;;;;32.67;13.33;;;;;2.10;100189.00;;;;10403881;28;20222;-81
2024/03/25 05:04:46;;;;;;;31.53;13.90;;;;;2.00;100181.00;;;;10407062;28;20694;-82
2024/03/25 05:09:47;;;;;;;32.40;15.03;;;;;2.10;100204.00;;;;10408497;28;20321;-82
2024/03/25 05:14:48;;;;;;;36.43;14.73;;;;;2.20;100195.00;;;;10406503;28;20305;-81
2024/03/25 05:19:50;;;;;;;33.83;14.60;;;;;2.30;100192.00;;;;10399405;28;20301;-81
2024/03/25 05:24:51;;;;;;;39.23;14.93;;;;;2.40;100197.00;;;;10398495;28;20309;-81
2024/03/25 05:29:53;;;;;;;39.40;16.07;;;;;2.50;100188.00;;;;10408089;28;20221;-81
2024/03/25 05:34:54;;;;;;;33.33;14.53;;;;;2.60;100178.00;;;;10407145;28;20705;-81
2024/03/25 05:39:55;;;;;;;45.23;17.13;;;;;2.90;100188.00;;;;10410798;28;20312;-83
2024/03/25 05:44:56;;;;;;;44.17;17.47;;;;;3.00;100182.00;;;;10435113;28;20244;-80
2024/03/25 05:49:57;;;;;;;39.90;16.93;;;;;3.10;100178.00;;;;10416196;28;20220;-82
2024/03/25 05:54:58;;;;;;;37.17;15.83;;;;;3.20;100173.00;;;;10402754;28;20222;-82
2024/03/25 05:59:59;;;;;;;35.93;16.67;;;;;3.30;100170.00;;;;10434204;28;20996;-81
2024/03/25 06:05:01;;;;;;;44.73;19.13;;;;;3.50;100175.00;;;;10404649;28;20218;-81
2024/03/25 06:10:02;;;;;;;52.90;20.80;;;;;3.90;100179.00;;;;10392622;28;20873;-81
2024/03/25 06:15:04;;;;;;;44.47;19.87;;;;;4.40;100177.00;;;;10423726;28;20741;-81
2024/03/25 06:20:05;;;;;;;41.83;19.93;;;;;4.60;100166.00;;;;10392719;28;20224;-81
2024/03/25 06:25:07;;;;;;;45.73;20.13;;;;;4.70;100169.00;;;;10383138;28;20219;-84
2024/03/25 06:35:28;;;;;;;44.07;18.67;;;;;5.10;100156.00;;;;10431930;28;20301;-83
2024/03/25 06:40:29;;;;;;;43.80;18.33;;;;;5.20;100160.00;;;;10403682;28;20215;-84
2024/03/25 06:45:30;;;;;;;44.80;17.83;;;;;5.30;100168.00;;;;10416873;28;20260;-84
2024/03/25 06:50:32;;;;;;;37.17;15.80;;;;;5.40;100161.00;;;;10419854;28;20218;-85
2024/03/25 06:55:33;;;;;;;38.10;15.57;;;;;5.50;100156.00;;;;10407858;28;20233;-84
2024/03/25 07:00:34;;;;;;;36.63;15.13;;;;;5.60;100155.00;;;;10397354;28;20608;-84
2024/03/25 07:05:35;;;;;;;39.97;15.80;;;;;5.80;100147.00;;;;10405520;28;20225;-84
2024/03/25 07:10:36;;;;;;;37.47;15.57;;;;;6.00;100159.00;;;;10410315;28;20218;-84
2024/03/25 07:15:38;;;;;;;40.00;16.40;;;;;6.40;100158.00;;;;10401643;28;20708;-83
2024/03/25 07:20:43;;;;;;;36.47;15.07;;;;;6.80;100158.00;;;;10410778;28;20321;-85
2024/03/25 07:25:44;;;;;;;36.33;13.93;;;;;7.20;100156.00;;;;10408383;28;20286;-83
2024/03/25 07:30:47;;;;;;;33.40;13.63;;;;;7.70;100161.00;;;;10399695;28;20305;-82
2024/03/25 07:35:48;;;;;;;23.83;10.97;;;;;8.20;100155.00;;;;10406971;28;20793;-83
2024/03/25 07:40:49;;;;;;;25.47;9.73;;;;;8.60;100153.00;;;;10408154;28;20306;-78
2024/03/25 07:45:50;;;;;;;20.00;10.33;;;;;8.90;100153.00;;;;10421802;28;20214;-77
2024/03/25 07:50:51;;;;;;;18.43;9.50;;;;;9.20;100152.00;;;;10378532;28;20217;-77
2024/03/25 07:55:52;;;;;;;18.67;9.63;;;;;9.60;100147.00;;;;10411122;28;20376;-77
2024/03/25 08:00:53;;;;;;;24.17;9.23;;;;;9.90;100150.00;;;;10401736;28;20316;-79
2024/03/25 08:05:54;;;;;;;17.67;8.07;;;;;9.90;100141.00;;;;10407322;28;21018;-77
2024/03/25 08:10:56;;;;;;;13.20;7.87;;;;;9.90;100139.00;;;;10431072;28;20222;-78
2024/03/25 08:15:57;;;;;;;23.40;9.20;;;;;9.90;100140.00;;;;10432842;28;20222;-77
2024/03/25 08:20:59;;;;;;;24.17;8.63;;;;;9.90;100147.00;;;;10402241;28;20222;-78
2024/03/25 08:26:01;;;;;;;19.33;7.90;;;;;10.00;100139.00;;;;10405379;28;20701;-78
2024/03/25 08:31:02;;;;;;;16.93;8.53;;;;;10.20;100141.00;;;;10406534;28;20217;-77
2024/03/25 08:36:04;;;;;;;17.43;8.27;;;;;10.70;100138.00;;;;10415947;28;20214;-78
2024/03/25 08:41:05;;;;;;;15.30;7.93;;;;;11.00;100131.00;;;;10370840;28;20236;-77
2024/03/25 08:46:06;;;;;;;17.67;8.77;;;;;11.40;100134.00;;;;10414966;28;20741;-79
2024/03/25 08:51:08;;;;;;;14.37;7.73;;;;;11.70;100129.00;;;;10390920;28;20310;-77
2024/03/25 08:56:09;;;;;;;16.52;7.68;;;;;11.60;100112.00;;;;10405501;28;20918;-77
2024/03/25 09:01:14;;;;;;;16.93;7.03;;;;;11.80;100105.00;;;;10412752;28;20886;-77
2024/03/25 09:06:17;;;;;;;14.90;6.57;;;;;12.20;100095.00;;;;10399943;28;20722;-78
2024/03/25 09:11:18;;;;;;;16.43;7.47;;;;;12.50;100085.00;;;;10416830;28;20246;-78
2024/03/25 09:16:19;;;;;;;14.93;6.80;;;;;13.10;100082.00;;;;10404899;28;20245;-77
2024/03/25 09:21:21;;;;;;;14.15;5.78;;;;;13.40;100076.00;;;;10416836;28;20329;-78
2024/03/25 09:26:22;;;;;;;8.18;4.20;;;;;13.60;100064.00;;;;10393859;28;21039;-78
2024/03/25 09:31:23;;;;;;;12.10;5.40;;;;;13.90;100062.00;;;;10390358;28;20215;-77
2024/03/25 09:36:27;;;;;;;11.70;5.40;;;;;13.90;100062.00;;;;10402836;28;20222;-79
2024/03/25 09:41:34;;;;;;;14.13;4.85;;;;;14.20;100047.00;;;;10432478;28;20746;-79
2024/03/25 09:46:36;;;;;;;11.55;4.82;;;;;14.60;100051.00;;;;10410699;28;20680;-80
2024/03/25 09:51:38;;;;;;;6.80;4.18;;;;;14.80;100042.00;;;;10393282;28;20225;-80
2024/03/25 09:56:40;;;;;;;7.10;3.63;;;;;15.00;100036.00;;;;10410213;28;20315;-79
2024/03/25 10:01:41;;;;;;;9.35;3.70;;;;;15.10;100036.00;;;;10395150;28;20231;-80
2024/03/25 10:06:43;;;;;;;8.18;3.80;;;;;15.30;100021.00;;;;10432433;28;20248;-80
2024/03/25 10:11:47;;;;;;;6.22;3.63;;;;;15.40;100012.00;;;;10397302;28;20218;-80
2024/03/25 10:16:49;;;;;;;7.53;3.50;;;;;15.50;100011.00;;;;10400779;28;20283;-81
2024/03/25 10:22:01;;;;;;;7.63;3.60;;;;;15.90;100005.00;;;;10394974;28;20869;-80
2024/03/25 10:27:02;;;;;;;8.68;3.95;;;;;16.30;99992.00;;;;10413835;28;20630;-80
2024/03/25 10:32:04;;;;;;;9.85;4.03;;;;;16.20;99997.00;;;;10403539;28;20229;-80
2024/03/25 10:37:11;;;;;;;9.38;3.90;;;;;16.70;99990.00;;;;10415903;28;20233;-80
2024/03/25 10:42:14;;;;;;;9.40;2.83;;;;;16.80;99981.00;;;;10372558;28;20245;-81
2024/03/25 10:47:23;;;;;;;9.20;3.65;;;;;17.00;99972.00;;;;10406948;28;20244;-81
2024/03/25 10:52:28;;;;;;;7.93;2.80;;;;;17.30;99966.00;;;;10403857;28;20314;-80
2024/03/25 10:57:31;;;;;;;6.82;3.05;;;;;17.40;99940.00;;;;10420816;28;20905;-81
2024/03/25 11:02:32;;;;;;;7.95;3.47;;;;;16.90;99944.00;;;;10398243;28;20322;-81
2024/03/25 11:07:33;;;;;;;4.38;2.28;;;;;18.00;99938.00;;;;10419847;28;20231;-80
2024/03/25 11:12:36;;;;;;;5.90;2.47;;;;;18.10;99925.00;;;;10433342;28;20807;-79
2024/03/25 11:17:48;;;;;;;7.57;2.67;;;;;18.30;99921.00;;;;10399707;28;20396;-79
2024/03/25 11:22:51;;;;;;;3.70;1.90;;;;;15.60;99928.00;;;;10403280;28;20740;-78
2024/03/25 11:27:52;;;;;;;4.15;1.90;;;;;15.20;99909.00;;;;10427208;28;20244;-80
2024/03/25 11:32:54;;;;;;;8.45;2.92;;;;;17.00;99902.00;;;;10402903;28;20853;-79
2024/03/25 11:37:56;;;;;;;4.88;2.28;;;;;17.90;99898.00;;;;10380507;28;20229;-81
2024/03/25 11:42:58;;;;;;;5.38;2.28;;;;;18.00;99925.00;;;;10402882;28;20217;-80
2024/03/25 11:47:59;;;;;;;11.77;3.30;;;;;15.90;99901.00;;;;10436330;28;20221;-80
2024/03/25 11:53:04;;;;;;;4.47;2.22;;;;;15.60;99879.00;;;;10385956;28;20221;-80
2024/03/25 11:58:07;;;;;;;4.93;2.50;;;;;16.10;99877.00;;;;10407770;28;20257;-80
2024/03/25 12:03:09;;;;;;;7.80;2.72;;;;;15.40;99877.00;;;;10403640;28;20305;-80
2024/03/25 12:08:13;;;;;;;5.72;2.30;;;;;16.70;99853.00;;;;10401074;28;20222;-82
2024/03/25 12:13:14;;;;;;;6.25;2.25;;;;;17.00;99860.00;;;;10427295;28;20351;-80
2024/03/25 12:18:16;;;;;;;4.95;1.88;;;;;16.30;99847.00;;;;10412906;28;20222;-80
2024/03/25 12:23:18;;;;;;;9.10;2.47;;;;;16.20;99839.00;;;;10421780;28;20230;-80
2024/03/25 12:28:21;;;;;;;5.22;2.10;;;;;15.70;99844.00;;;;10394158;28;20238;-80
2024/03/25 12:33:23;;;;;;;5.25;2.13;;;;;15.20;99834.00;;;;10406520;28;20225;-81
2024/03/25 12:38:31;;;;;;;6.43;2.15;;;;;15.80;99808.00;;;;10413844;28;20213;-80
2024/03/25 12:43:33;;;;;;;4.65;2.42;;;;;17.00;99813.00;;;;10390119;28;20222;-80
2024/03/25 12:48:37;;;;;;;4.93;1.88;;;;;16.60;99804.00;;;;10399465;28;20226;-80
2024/03/25 12:53:39;;;;;;;4.30;1.92;;;;;16.70;99797.00;;;;10399143;28;20321;-81
2024/03/25 12:58:41;;;;;;;3.17;1.95;;;;;16.40;99787.00;;;;10390466;28;20241;-82
2024/03/25 13:03:42;;;;;;;4.35;2.03;;;;;16.70;99777.00;;;;10424999;28;20226;-83
2024/03/25 13:08:43;;;;;;;4.57;2.40;;;;;17.90;99762.00;;;;10404649;28;20252;-80
2024/03/25 13:13:46;;;;;;;5.15;2.00;;;;;18.00;99762.00;;;;10394749;28;20332;-81
2024/03/25 13:18:47;;;;;;;5.95;2.08;;;;;17.10;99748.00;;;;10405960;28;20222;-81
2024/03/25 13:23:48;;;;;;;5.13;2.22;;;;;17.00;99734.00;;;;10398373;28;20217;-81
2024/03/25 13:28:49;;;;;;;4.80;2.20;;;;;15.60;99731.00;;;;10403658;28;20258;-81
2024/03/25 13:33:51;;;;;;;4.43;1.70;;;;;15.20;99706.00;;;;10410630;28;21087;-83
2024/03/25 13:38:53;;;;;;;2.95;1.88;;;;;15.20;99697.00;;;;10406928;28;20292;-83
2024/03/25 13:43:54;;;;;;;4.90;2.00;;;;;15.80;99698.00;;;;10386552;28;20215;-84
2024/03/25 13:48:55;;;;;;;3.15;2.00;;;;;16.40;99681.00;;;;10404248;28;20225;-83
2024/03/25 13:53:57;;;;;;;6.13;2.20;;;;;16.70;99670.00;;;;10393694;28;20272;-83
2024/03/25 13:59:05;;;;;;;4.28;1.98;;;;;16.60;99654.00;;;;10423760;28;20222;-82
2024/03/25 14:04:06;;;;;;;7.65;2.20;;;;;16.60;99642.00;;;;10411711;28;20213;-83
2024/03/25 14:09:22;;;;;;;4.68;1.90;;;;;16.40;99631.00;;;;10418758;28;20226;-82
2024/03/25 14:14:23;;;;;;;3.38;1.52;;;;;17.50;99617.00;;;;10416728;28;20632;-83
2024/03/25 14:19:25;;;;;;;2.80;1.73;;;;;18.50;99610.00;;;;10392704;28;20233;-83
2024/03/25 14:24:26;;;;;;;3.75;1.45;;;;;19.50;99578.00;;;;10389341;28;20218;-82
2024/03/25 14:29:27;;;;;;;5.03;1.90;;;;;18.70;99569.00;;;;10416949;28;20633;-84
2024/03/25 14:34:28;;;;;;;2.95;1.65;;;;;19.10;99556.00;;;;10421709;28;20271;-82
2024/03/25 14:39:29;;;;;;;2.92;1.40;;;;;18.60;99553.00;;;;10407156;28;20249;-79
2024/03/25 14:44:31;;;;;;;4.25;1.50;;;;;19.00;99533.00;;;;10403475;28;20226;-80
2024/03/25 14:49:32;;;;;;;2.53;1.40;;;;;17.70;99547.00;;;;10413903;28;20258;-80
2024/03/25 14:54:34;;;;;;;3.78;1.70;;;;;16.60;99538.00;;;;10393365;28;20219;-77
2024/03/25 14:59:35;;;;;;;1.90;1.70;;;;;16.60;99538.00;;;;10381401;28;20232;-78
2024/03/25 15:04:36;;;;;;;2.95;1.58;;;;;16.50;99529.00;;;;10403814;28;20333;-79
2024/03/25 15:09:38;;;;;;;2.92;1.10;;;;;15.90;99517.00;;;;10404277;28;20787;-81
2024/03/25 15:14:39;;;;;;;2.25;1.55;;;;;15.40;99509.00;;;;10411326;28;20329;-79
2024/03/25 15:19:40;;;;;;;2.55;1.50;;;;;14.90;99503.00;;;;10414248;28;20889;-78
2024/03/25 15:24:41;;;;;;;3.40;1.60;;;;;14.40;99497.00;;;;10401665;28;20250;-80
2024/03/25 15:29:43;;;;;;;4.53;1.75;;;;;14.20;99497.00;;;;10403322;28;20222;-79
2024/03/25 15:34:44;;;;;;;2.63;1.40;;;;;14.30;99491.00;;;;10405320;28;20222;-79
2024/03/25 15:39:45;;;;;;;3.63;1.70;;;;;14.50;99478.00;;;;10409576;28;20309;-81
2024/03/25 15:44:46;;;;;;;2.75;1.48;;;;;14.20;99477.00;;;;10410658;28;20250;-78
2024/03/25 15:49:49;;;;;;;3.30;1.70;;;;;14.00;99470.00;;;;10382887;28;20241;-80
2024/03/25 15:54:51;;;;;;;2.87;1.57;;;;;13.90;99457.00;;;;10406858;28;20317;-81
2024/03/25 15:59:52;;;;;;;2.37;1.30;;;;;13.80;99462.00;;;;10413898;28;20226;-81
2024/03/25 16:04:53;;;;;;;2.90;1.47;;;;;13.70;99448.00;;;;10394534;28;20217;-79
2024/03/25 16:09:54;;;;;;;3.00;1.52;;;;;13.60;99446.00;;;;10410296;28;20228;-81
2024/03/25 16:14:58;;;;;;;1.83;1.23;;;;;13.50;99422.00;;;;10405682;28;20225;-79
2024/03/25 16:19:59;;;;;;;3.77;2.00;;;;;13.30;99435.00;;;;10406840;28;20773;-80
2024/03/25 16:25:01;;;;;;;3.70;2.07;;;;;13.20;99430.00;;;;10412363;28;20213;-82
2024/03/25 16:30:03;;;;;;;2.40;1.37;;;;;13.10;99423.00;;;;10425550;28;20222;-80
2024/03/25 16:35:05;;;;;;;2.60;1.40;;;;;13.00;99418.00;;;;10355131;28;20250;-82
2024/03/25 16:40:06;;;;;;;2.50;1.50;;;;;12.80;99406.00;;;;10375310;28;20293;-82
2024/03/25 16:45:08;;;;;;;1.87;1.23;;;;;12.60;99398.00;;;;10338505;28;20226;-81
2024/03/25 16:50:09;;;;;;;2.73;1.30;;;;;12.50;99402.00;;;;10368191;28;20306;-83
2024/03/25 16:55:10;;;;;;;3.97;1.60;;;;;12.40;99396.00;;;;10359371;28;20224;-81
2024/03/25 17:00:12;;;;;;;3.87;1.50;;;;;12.30;99382.00;;;;10372853;28;20298;-78
2024/03/25 17:05:14;;;;;;;3.23;1.77;;;;;12.10;99387.00;;;;10353762;28;20227;-78
2024/03/25 17:10:15;;;;;;;4.03;1.40;;;;;11.90;99368.00;;;;10367932;28;21341;-79
2024/03/25 17:15:16;;;;;;;3.90;1.70;;;;;11.70;99364.00;;;;10364383;28;20238;-80
2024/03/25 17:20:18;;;;;;;2.07;1.53;;;;;11.50;99351.00;;;;10329873;28;20219;-78
2024/03/25 17:25:19;;;;;;;2.57;1.60;;;;;11.30;99346.00;;;;10318098;28;20272;-80
2024/03/25 17:30:20;;;;;;;3.40;1.67;;;;;11.20;99345.00;;;;10328036;28;22202;-79
2024/03/25 17:35:21;;;;;;;3.77;1.60;;;;;11.00;99353.00;;;;10330140;28;20314;-78
2024/03/25 17:40:22;;;;;;;2.60;1.40;;;;;10.80;99349.00;;;;10335521;28;20223;-79
2024/03/25 17:45:24;;;;;;;3.17;1.60;;;;;10.70;99355.00;;;;10325337;28;20727;-79
2024/03/25 17:50:29;;;;;;;3.13;1.23;;;;;10.50;99340.00;;;;10336058;28;20314;-78
2024/03/25 17:55:30;;;;;;;3.47;1.70;;;;;10.40;99341.00;;;;10311714;28;20235;-79
2024/03/25 18:00:31;;;;;;;3.07;1.50;;;;;10.20;99331.00;;;;10359536;28;20649;-79
2024/03/25 18:05:32;;;;;;;2.40;1.57;;;;;10.00;99329.00;;;;10348566;28;20728;-78
2024/03/25 18:10:33;;;;;;;4.17;1.53;;;;;9.80;99331.00;;;;10332234;28;20323;-85
2024/03/25 18:15:34;;;;;;;2.53;1.50;;;;;9.70;99327.00;;;;10345515;28;20297;-85
2024/03/25 18:20:36;;;;;;;5.30;1.67;;;;;9.60;99331.00;;;;10351618;28;20231;-84
2024/03/25 18:25:38;;;;;;;2.93;1.93;;;;;9.50;99325.00;;;;10357628;28;20234;-86
2024/03/25 18:30:40;;;;;;;4.53;1.70;;;;;9.50;99324.00;;;;10356323;28;20219;-86
2024/03/25 18:35:42;;;;;;;5.37;2.27;;;;;9.30;99316.00;;;;10370360;28;20226;-87
2024/03/25 18:40:43;;;;;;;1.50;1.40;;;;;9.20;99308.00;;;;10352234;28;20215;-86
2024/03/25 18:45:44;;;;;;;3.97;1.70;;;;;9.10;99310.00;;;;10352964;28;20214;-86
2024/03/25 18:50:45;;;;;;;2.00;1.40;;;;;9.10;99296.00;;;;10365937;28;20215;-84
2024/03/25 18:55:47;;;;;;;6.60;1.97;;;;;9.00;99285.00;;;;10355411;28;20219;-86
2024/03/25 19:00:48;;;;;;;4.17;1.70;;;;;8.90;99289.00;;;;10365032;28;20288;-86
2024/03/25 19:05:49;;;;;;;2.80;1.77;;;;;8.80;99284.00;;;;10350597;28;20344;-85
2024/03/25 19:10:50;;;;;;;3.50;2.10;;;;;8.80;99287.00;;;;10347244;28;20335;-86
2024/03/25 19:15:51;;;;;;;5.40;2.30;;;;;8.60;99280.00;;;;10353848;28;20274;-87
2024/03/25 19:20:53;;;;;;;4.23;2.70;;;;;8.50;99274.00;;;;10368671;28;20223;-83
2024/03/25 19:25:54;;;;;;;6.50;2.07;;;;;8.40;99274.00;;;;10368868;28;20698;-84
2024/03/25 19:30:55;;;;;;;6.10;2.17;;;;;8.40;99267.00;;;;10392824;28;20309;-84
2024/03/25 19:36:00;;;;;;;4.03;2.37;;;;;8.20;99260.00;;;;10379671;28;20334;-83
2024/03/25 19:41:07;;;;;;;3.67;2.10;;;;;8.10;99257.00;;;;10342453;28;20223;-84
2024/03/25 19:46:08;;;;;;;5.53;3.00;;;;;8.00;99252.00;;;;10382187;28;20326;-84
2024/03/25 19:51:09;;;;;;;4.53;2.80;;;;;7.90;99245.00;;;;10380365;28;20305;-84
2024/03/25 19:56:13;;;;;;;4.80;2.83;;;;;7.90;99242.00;;;;10377159;28;20246;-83
2024/03/25 20:01:17;;;;;;;5.00;3.00;;;;;7.80;99243.00;;;;10375353;28;20989;-84
2024/03/25 20:06:19;;;;;;;5.37;3.00;;;;;7.70;99234.00;;;;10354376;28;20230;-83
2024/03/25 20:11:20;;;;;;;4.83;3.17;;;;;7.60;99227.00;;;;10374826;28;20286;-84
2024/03/25 20:16:22;;;;;;;4.93;3.17;;;;;7.50;99226.00;;;;10392329;28;20225;-84
2024/03/25 20:21:23;;;;;;;5.10;3.40;;;;;7.50;99228.00;;;;10355499;28;20306;-84
2024/03/25 20:26:24;;;;;;;9.03;3.83;;;;;7.50;99227.00;;;;10376753;28;20262;-84
2024/03/25 20:31:25;;;;;;;6.00;3.43;;;;;7.40;99220.00;;;;10374252;28;20332;-85
2024/03/25 20:36:26;;;;;;;5.77;3.30;;;;;7.40;99218.00;;;;10354642;28;20272;-87
2024/03/25 20:41:27;;;;;;;5.67;3.30;;;;;7.30;99215.00;;;;10362737;28;20246;-86
2024/03/25 20:46:28;;;;;;;6.33;3.37;;;;;7.20;99211.00;;;;10367301;28;20264;-87
2024/03/25 20:51:29;;;;;;;6.67;2.83;;;;;7.20;99209.00;;;;10386879;28;20674;-87
2024/03/25 20:56:31;;;;;;;5.83;3.67;;;;;7.10;99209.00;;;;10374703;28;20820;-86
2024/03/25 21:01:32;;;;;;;6.37;4.03;;;;;7.10;99201.00;;;;10413076;28;20223;-87
2024/03/25 21:06:33;;;;;;;4.83;3.80;;;;;7.10;99192.00;;;;10368125;28;20285;-86
2024/03/25 21:11:34;;;;;;;7.63;3.87;;;;;7.20;99188.00;;;;10360973;28;20332;-88
2024/03/25 21:16:36;;;;;;;7.63;4.00;;;;;7.30;99178.00;;;;10386214;28;20227;-86
2024/03/25 21:21:37;;;;;;;7.03;4.23;;;;;7.30;99180.00;;;;10381397;28;20297;-86
2024/03/25 21:26:38;;;;;;;9.30;4.13;;;;;7.30;99166.00;;;;10375966;28;20226;-86
2024/03/25 21:31:40;;;;;;;8.57;4.27;;;;;7.30;99156.00;;;;10376988;28;20245;-85
2024/03/25 21:36:42;;;;;;;8.73;3.97;;;;;7.40;99164.00;;;;10357722;28;20245;-85
2024/03/25 21:41:44;;;;;;;10.87;4.40;;;;;7.40;99165.00;;;;10378525;28;20219;-82
2024/03/25 21:46:46;;;;;;;7.30;3.53;;;;;7.40;99166.00;;;;10405693;28;20882;-84
2024/03/25 21:51:47;;;;;;;9.00;4.50;;;;;7.40;99162.00;;;;10369683;28;20227;-84
2024/03/25 21:56:48;;;;;;;9.70;4.20;;;;;7.40;99154.00;;;;10359866;28;20219;-85
2024/03/25 22:01:49;;;;;;;8.43;4.43;;;;;7.50;99151.00;;;;10362204;28;20886;-84
2024/03/25 22:06:51;;;;;;;7.47;3.80;;;;;7.50;99139.00;;;;10348295;28;20230;-83
2024/03/25 22:11:54;;;;;;;6.77;4.47;;;;;7.50;99147.00;;;;10328775;28;20219;-83
2024/03/25 22:16:57;;;;;;;6.10;3.90;;;;;7.50;99145.00;;;;10364344;28;20614;-84
2024/03/25 22:21:59;;;;;;;7.50;3.83;;;;;7.60;99148.00;;;;10363978;28;20933;-83
2024/03/25 22:27:00;;;;;;;6.70;3.70;;;;;7.60;99148.00;;;;10334238;28;20317;-85
2024/03/25 22:32:01;;;;;;;6.13;3.90;;;;;7.50;99145.00;;;;10363238;28;20248;-84
2024/03/25 22:37:03;;;;;;;5.33;4.10;;;;;7.50;99138.00;;;;10353293;28;20226;-83
2024/03/25 22:42:04;;;;;;;7.87;4.47;;;;;7.50;99133.00;;;;10347791;28;20227;-85
2024/03/25 22:47:05;;;;;;;6.43;3.20;;;;;7.50;99129.00;;;;10329276;28;20223;-85
2024/03/25 22:52:07;;;;;;;3.83;3.20;;;;;7.40;99116.00;;;;10353355;28;20349;-83
2024/03/25 22:57:08;;;;;;;6.57;3.60;;;;;7.40;99117.00;;;;10369591;28;20253;-82
2024/03/25 23:02:09;;;;;;;4.43;2.70;;;;;7.40;99113.00;;;;10340419;28;20250;-82
2024/03/25 23:07:10;;;;;;;4.40;3.03;;;;;7.30;99098.00;;;;10370717;28;20632;-82
2024/03/25 23:12:11;;;;;;;7.40;3.07;;;;;7.30;99100.00;;;;10333839;28;20303;-83
2024/03/25 23:17:13;;;;;;;5.73;2.77;;;;;7.20;99080.00;;;;10343136;28;20227;-82
2024/03/25 23:22:14;;;;;;;4.50;3.03;;;;;7.20;99082.00;;;;10351688;28;20266;-82
2024/03/25 23:27:15;;;;;;;7.17;2.60;;;;;7.20;99075.00;;;;10332006;28;20325;-82
2024/03/25 23:32:16;;;;;;;6.03;3.30;;;;;7.20;99063.00;;;;10351279;28;20222;-83
2024/03/25 23:37:17;;;;;;;3.03;2.17;;;;;7.10;99059.00;;;;10345740;28;20218;-83
2024/03/25 23:42:19;;;;;;;4.97;2.40;;;;;7.00;99058.00;;;;10354832;28;20273;-82
2024/03/25 23:47:20;;;;;;;7.00;2.90;;;;;6.90;99048.00;;;;10375432;28;20807;-83
2024/03/25 23:52:21;;;;;;;9.03;2.93;;;;;6.90;99047.00;;;;10347986;28;20233;-82
2024/03/25 23:57:22;;;;;;;6.57;2.73;;;;;6.90;99052.00;;;;10350427;28;20287;-83
